ěÝzenÝ letovÚho provozu ╚eskÚ republiky
Letiste: LKCV Aktualizace: 10.08.2022 15:59:33  UTC
 METAR LKCV 10.08. 16:00 ...
METAR LKCV 101600Z 05010KT CAVOK 26/09 Q1024 NOSIG RMK BLU BLU=
 TAF LKCV 10.08. 11:00 ...
TAF LKCV 101100Z 1012/1112 06008KT CAVOK      TEMPO 1012/1017 08012KT      BECMG 1019/1021 VRB02KT=